Aaron Joseph — WCV9877 — position and weather

sailwx.info

Track history (hours):
 
Tides and Currents Weather Stations Pressure Air Temp Water Temp Dewpoint Dewpoint Depression Visibility Wind Speed Wind Dir Waves Ship Positions

Aaron Joseph

Owner: AARON JOSEPH INC, GOLDEN MEADOW, LA. More information available from US FCC via Universal Licensing System and Coast Guard Vessel Documentation Center.

Last reported at 2018-Apr-25 14:30 UTC. Time now 2018-Apr-25 14:43 UTC.
Position N 29°35' W 090°36'.

; draft 2.5 m.

Type: Tug. MMSI: 367028680.

Date/timePositionNaut miles runAvg speedWind from/ knotsBaromVisibWave heightAir tempDewpointWater temp
2018-Apr-25 14:30N 29°35' W 090°36'0 0.0
2018-Apr-25 14:00N 29°35' W 090°36'0 0.0
2018-Apr-25 13:30N 29°35' W 090°36'0 0.0
2018-Apr-25 13:00N 29°35' W 090°36'0 0.0
2018-Apr-25 12:30N 29°35' W 090°36'0 0.0
2018-Apr-25 12:00N 29°35' W 090°36'0 0.0
2018-Apr-25 11:30N 29°35' W 090°36'0 0.0
2018-Apr-25 11:00N 29°35' W 090°36'0 0.0
2018-Apr-25 10:27N 29°35' W 090°36'0 0.0
2018-Apr-25 09:55N 29°35' W 090°36'0 0.0
2018-Apr-25 09:30N 29°35' W 090°36'0 0.0
2018-Apr-25 09:00N 29°35' W 090°36'0 0.0
2018-Apr-25 08:30N 29°35' W 090°36'0 0.0
2018-Apr-25 07:56N 29°35' W 090°36'0 0.0
2018-Apr-25 07:24N 29°35' W 090°36'0 0.0
2018-Apr-25 07:00N 29°35' W 090°36'0 0.0
2018-Apr-25 06:30N 29°35' W 090°36'0 0.0
2018-Apr-25 05:59N 29°35' W 090°36'0 0.0
2018-Apr-25 05:21N 29°35' W 090°36'0 0.0
2018-Apr-25 05:00N 29°35' W 090°36'0 0.0
2018-Apr-25 04:31N 29°35' W 090°36'0 0.0
2018-Apr-25 04:00N 29°35' W 090°36'0 0.0
2018-Apr-25 03:30N 29°35' W 090°36'0 0.0
2018-Apr-25 02:57N 29°35' W 090°36'0 0.0
2018-Apr-25 02:21N 29°35' W 090°36'0 0.0
2018-Apr-25 02:00N 29°35' W 090°36'0 0.0
2018-Apr-25 01:29N 29°35' W 090°36'0 0.0
2018-Apr-25 00:59N 29°35' W 090°36'0 0.0
2018-Apr-25 00:28N 29°35' W 090°36'0 0.0
2018-Apr-25 00:00N 29°35' W 090°36'0 0.0
2018-Apr-24 23:27N 29°35' W 090°36'0 0.0
2018-Apr-24 23:00N 29°35' W 090°36'0 0.2
2018-Apr-24 22:30N 29°35' W 090°36'3 6.4
2018-Apr-24 22:00N 29°36' W 090°39'1 1.7
2018-Apr-24 21:30N 29°36' W 090°40'0 0.0
2018-Apr-24 21:00N 29°36' W 090°40'0 0.0
2018-Apr-24 20:30N 29°36' W 090°40'0 0.0
2018-Apr-24 20:00N 29°36' W 090°40'0 0.0
2018-Apr-24 19:28N 29°36' W 090°40'0 0.0
2018-Apr-24 18:58N 29°36' W 090°40'0 0.0
2018-Apr-24 18:30N 29°36' W 090°40'0 0.0
2018-Apr-24 18:00N 29°36' W 090°40'0 0.0
2018-Apr-24 17:30N 29°36' W 090°40'0 0.0
2018-Apr-24 17:00N 29°36' W 090°40'0 0.0
2018-Apr-24 16:27N 29°36' W 090°40'0 0.0
2018-Apr-24 16:00N 29°36' W 090°40'0 0.0
2018-Apr-24 15:30N 29°36' W 090°40'0 0.0
2018-Apr-24 15:00N 29°36' W 090°40'0 0.0
2018-Apr-24 14:30N 29°36' W 090°40'1 1.0
2018-Apr-24 14:00N 29°36' W 090°40'3 6.9
2018-Apr-24 13:30N 29°35' W 090°36'1 1.3
2018-Apr-24 13:00N 29°35' W 090°36'0 0.0
2018-Apr-24 12:30N 29°35' W 090°36'0 0.0
2018-Apr-24 11:59N 29°35' W 090°36'0 0.0
2018-Apr-24 11:31N 29°35' W 090°36'0 0.0
2018-Apr-24 11:00N 29°35' W 090°36'0 0.0
2018-Apr-24 10:25N 29°35' W 090°36'0 0.0
2018-Apr-24 09:59N 29°35' W 090°36'0 0.5
2018-Apr-24 09:30N 29°35' W 090°36'3 7.0
2018-Apr-24 09:00N 29°34' W 090°32'4 7.6
2018-Apr-24 08:30N 29°33' W 090°28'  
Track history (hours):
 
Tides and Currents Weather Stations Pressure Air Temp Water Temp Dewpoint Dewpoint Depression Visibility Wind Speed Wind Dir Waves Ship Positions

Aaron Joseph

Owner: AARON JOSEPH INC, GOLDEN MEADOW, LA. More information available from US FCC via Universal Licensing System and Coast Guard Vessel Documentation Center.

Last reported at 2018-Apr-25 14:30 UTC. Time now 2018-Apr-25 14:43 UTC.
Position N 29°35' W 090°36'.

; draft 2.5 m.

Type: Tug. MMSI: 367028680.

Date/timePositionNaut miles runAvg speedWind from/ knotsBaromVisibWave heightAir tempDewpointWater temp
2018-Apr-25 14:30N 29°35' W 090°36'0 0.0
2018-Apr-25 14:00N 29°35' W 090°36'0 0.0
2018-Apr-25 13:30N 29°35' W 090°36'0 0.0
2018-Apr-25 13:00N 29°35' W 090°36'0 0.0
2018-Apr-25 12:30N 29°35' W 090°36'0 0.0
2018-Apr-25 12:00N 29°35' W 090°36'0 0.0
2018-Apr-25 11:30N 29°35' W 090°36'0 0.0
2018-Apr-25 11:00N 29°35' W 090°36'0 0.0
2018-Apr-25 10:27N 29°35' W 090°36'0 0.0
2018-Apr-25 09:55N 29°35' W 090°36'0 0.0
2018-Apr-25 09:30N 29°35' W 090°36'0 0.0
2018-Apr-25 09:00N 29°35' W 090°36'0 0.0
2018-Apr-25 08:30N 29°35' W 090°36'0 0.0
2018-Apr-25 07:56N 29°35' W 090°36'0 0.0
2018-Apr-25 07:24N 29°35' W 090°36'0 0.0
2018-Apr-25 07:00N 29°35' W 090°36'0 0.0
2018-Apr-25 06:30N 29°35' W 090°36'0 0.0
2018-Apr-25 05:59N 29°35' W 090°36'0 0.0
2018-Apr-25 05:21N 29°35' W 090°36'0 0.0
2018-Apr-25 05:00N 29°35' W 090°36'0 0.0
2018-Apr-25 04:31N 29°35' W 090°36'0 0.0
2018-Apr-25 04:00N 29°35' W 090°36'0 0.0
2018-Apr-25 03:30N 29°35' W 090°36'0 0.0
2018-Apr-25 02:57N 29°35' W 090°36'0 0.0
2018-Apr-25 02:21N 29°35' W 090°36'0 0.0
2018-Apr-25 02:00N 29°35' W 090°36'0 0.0
2018-Apr-25 01:29N 29°35' W 090°36'0 0.0
2018-Apr-25 00:59N 29°35' W 090°36'0 0.0
2018-Apr-25 00:28N 29°35' W 090°36'0 0.0
2018-Apr-25 00:00N 29°35' W 090°36'0 0.0
2018-Apr-24 23:27N 29°35' W 090°36'0 0.0
2018-Apr-24 23:00N 29°35' W 090°36'0 0.2
2018-Apr-24 22:30N 29°35' W 090°36'3 6.4
2018-Apr-24 22:00N 29°36' W 090°39'1 1.7
2018-Apr-24 21:30N 29°36' W 090°40'0 0.0
2018-Apr-24 21:00N 29°36' W 090°40'0 0.0
2018-Apr-24 20:30N 29°36' W 090°40'0 0.0
2018-Apr-24 20:00N 29°36' W 090°40'0 0.0
2018-Apr-24 19:28N 29°36' W 090°40'0 0.0
2018-Apr-24 18:58N 29°36' W 090°40'0 0.0
2018-Apr-24 18:30N 29°36' W 090°40'0 0.0
2018-Apr-24 18:00N 29°36' W 090°40'0 0.0
2018-Apr-24 17:30N 29°36' W 090°40'0 0.0
2018-Apr-24 17:00N 29°36' W 090°40'0 0.0
2018-Apr-24 16:27N 29°36' W 090°40'0 0.0
2018-Apr-24 16:00N 29°36' W 090°40'0 0.0
2018-Apr-24 15:30N 29°36' W 090°40'0 0.0
2018-Apr-24 15:00N 29°36' W 090°40'0 0.0
2018-Apr-24 14:30N 29°36' W 090°40'1 1.0
2018-Apr-24 14:00N 29°36' W 090°40'3 6.9
2018-Apr-24 13:30N 29°35' W 090°36'1 1.3
2018-Apr-24 13:00N 29°35' W 090°36'0 0.0
2018-Apr-24 12:30N 29°35' W 090°36'0 0.0
2018-Apr-24 11:59N 29°35' W 090°36'0 0.0
2018-Apr-24 11:31N 29°35' W 090°36'0 0.0
2018-Apr-24 11:00N 29°35' W 090°36'0 0.0
2018-Apr-24 10:25N 29°35' W 090°36'0 0.0
2018-Apr-24 09:59N 29°35' W 090°36'0 0.5
2018-Apr-24 09:30N 29°35' W 090°36'3 7.0
2018-Apr-24 09:00N 29°34' W 090°32'4 7.6
2018-Apr-24 08:30N 29°33' W 090°28'  

Dump ship's entire track history